Fédération internationale de Ski
Member Section
Print

OFFICIAL RESULTS

Are (SWE) 13.03.2017

FIS Junior World Ski Championships - Men's Giant Slalom

Race codex : 0233
Valid for FIS Points : YES



Jury
TD FIS VALER HANSPETER SUI
Referee Peter GERDOL FIS
Chief of Race Jan-Erik LUNDMARK SWE
Technical Data
Start Altitude 812 m.
Finish Altitude 396 m.
Vertical Drop 416 m.
Homologation Number 11800/10/15
Run 1
Course Setter Fredrik STEINWALL SWE
Number of Gates 52
Turning Gates 49
Start Time 09:30
Run 2
Course Setter David FILL RUS
Number of Gates 52
Turning Gates 49
Start Time 13.00
 
Show more info»

Competitors

Display filter form
Rank Bib FIS Code Name Year Nation Run 1 Run 2 Total Time Diff. FIS Points
 1  5  512182 MEILLARD Loic  1996  SUI   1:13.68  1:11.55  2:25.23     7.90
 2  12  422507 HAUGAN Timon  1996  NOR   1:14.56  1:11.24  2:25.80  +0.57  11.75
 3  3  6190329 GUILLOT Victor  1996  FRA   1:14.06  1:12.05  2:26.11  +0.88  13.84
 4  7  104531 CRAWFORD James  1997  CAN   1:14.55  1:11.71  2:26.26  +1.03  14.85
 5  13  92720 POPOV Albert  1997  BUL   1:13.74  1:12.58  2:26.32  +1.09  15.26
 6  1  221213 RAPOSO Charlie  1996  GBR   1:15.08  1:11.40  2:26.48  +1.25  16.33
 7  10  54348 PERTL Adrian  1996  AUT   1:15.63  1:11.36  2:26.99  +1.76  19.78
 8  4  54340 LAHNSTEINER Maximilian  1996  AUT   1:15.40  1:11.69  2:27.09  +1.86  20.45
 9  15  422546 LINDSTOEL Joachim Jagge  1997  NOR   1:14.70  1:12.49  2:27.19  +1.96  21.13
 10  8  6531444 ARVIDSSON Erik  1996  USA   1:15.37  1:11.88  2:27.25  +2.02  21.53
 11  40  422461 SOLHEIM Aage  1996  NOR   1:15.87  1:11.48  2:27.35  +2.12  22.21
 12  63  422469 SOLHEIM Fabian Wilkens  1996  NOR   1:16.47  1:11.22  2:27.69  +2.46  24.50
 13  37  180786 BACK Robin  1996  FIN   1:16.29  1:11.50  2:27.79  +2.56  25.17
 14  27  202764 MEISEN Bastian  1996  GER   1:15.62  1:12.20  2:27.82  +2.59  25.38
 15  20  512203 NEF Tanguy  1996  SUI   1:16.18  1:11.65  2:27.83  +2.60  25.44
 16  9  54358 GRAF Mathias  1996  AUT   1:15.44  1:12.79  2:28.23  +3.00  28.14
 17  47  380363 KOLEGA Elias  1996  CRO   1:16.56  1:11.77  2:28.33  +3.10  28.82
 18  16  512274 BISSIG Semyel  1998  SUI   1:16.28  1:12.16  2:28.44  +3.21  29.56
 19  61  221236 TAYLOR Laurie  1996  GBR   1:16.29  1:12.17  2:28.46  +3.23  29.70
 20  43  422670 VOELLO Gustav Rosberg  1999  NOR   1:15.75  1:12.89  2:28.64  +3.41  30.91
 21  32  60261 MAES Sam  1998  BEL   1:16.65  1:12.30  2:28.95  +3.72  33.00
 22  29  151215 FOREJTEK Filip  1997  CZE   1:16.80  1:12.20  2:29.00  +3.77  33.34
 23  21  481785 EFIMOV Simon  1996  RUS   1:16.76  1:12.38  2:29.14  +3.91  34.28
 24  17  6190176 BAILET Matthieu  1996  FRA   1:16.31  1:12.85  2:29.16  +3.93  34.42
 25  2  54444 GSTREIN Fabio  1997  AUT   1:16.39  1:13.07  2:29.46  +4.23  36.44
 26  24  6293171 VINATZER Alex  1999  ITA   1:17.58  1:12.82  2:30.40  +5.17  42.79
 27  53  40621 MUHLEN-SCHULTE Louis  1998  AUS   1:17.79  1:12.72  2:30.51  +5.28  43.53
 28  35  6292544 MOSCHINI Lorenzo  1997  ITA   1:17.21  1:13.38  2:30.59  +5.36  44.07
 29  44  202712 HEGELE Georg  1996  GER   1:17.03  1:13.58  2:30.61  +5.38  44.20
 30  55  104529 MULLIGAN Sam  1997  CAN   1:17.22  1:13.43  2:30.65  +5.42  44.47
 31  85  221223 MAJOR Billy  1996  GBR   1:17.48  1:13.18  2:30.66  +5.43  44.54
 32  48  202736 DICK Lukas  1996  GER   1:17.84  1:12.99  2:30.83  +5.60  45.69
 33  34  6532084 RADAMUS River  1998  USA   1:18.74  1:12.15  2:30.89  +5.66  46.09
 34  36  6532149 MILLER Andrew  1998  USA   1:17.52  1:13.64  2:31.16  +5.93  47.92
 35  79  6292401 GORI Francesco  1997  ITA   1:18.04  1:13.51  2:31.55  +6.32  50.55
 35  18  54346 HACKER Pirmin  1996  AUT   1:16.74  1:14.81  2:31.55  +6.32  50.55
 37  31  6531472 DRILLER Garret  1996  USA   1:16.62  1:15.06  2:31.68  +6.45  51.42
 38  30  502135 GRYM Hannes  1996  SWE   1:17.54  1:14.22  2:31.76  +6.53  51.96
 39  69  180864 TORVINEN Turo  2000  FIN   1:18.55  1:13.89  2:32.44  +7.21  56.55
 40  14  304801 MATSUMOTO Tatsuki  1996  JPN   1:18.12  1:14.73  2:32.85  +7.62  59.32
 41  82  700941 KATRENIC Henrich  1998  SVK   1:18.55  1:14.52  2:33.07  +7.84  60.80
 42  60  492197 GARAY Aingeru  1998  ESP   1:19.29  1:14.06  2:33.35  +8.12  62.69
 42  41  202808 MEISEN Adrian  1997  GER   1:16.61  1:16.74  2:33.35  +8.12  62.69
 44  81  561360 KRALJ Zan  1997  SLO   1:19.64  1:15.02  2:34.66  +9.43  71.53
 44  52  481845 SVITKOV Gennadiy  1997  RUS   1:19.05  1:15.61  2:34.66  +9.43  71.53
 46  96  151203 BENC Patrik  1997  CZE   1:19.27  1:15.42  2:34.69  +9.46  71.74
 47  87  550086 GEDRA Zaks  1998  LAT   1:19.91  1:14.80  2:34.71  +9.48  71.87
 48  80  561331 KAVCIC Jani  1996  SLO   1:20.34  1:14.47  2:34.81  +9.58  72.55
 49  64  104467 PHILP Huston  1997  CAN   1:20.06  1:15.05  2:35.11  +9.88  74.57
 50  76  151154 SKOREPA Jan  1996  CZE   1:20.27  1:15.10  2:35.37  +10.14  76.32
 51  93  80076 GRAHN Guilherme  1997  BRA   1:20.06  1:15.37  2:35.43  +10.20  76.73
 52  90  700950 REVUCKY Samuel  1999  SVK   1:20.58  1:14.99  2:35.57  +10.34  77.67
 53  89  60256 VERBEKE Tom  1997  BEL   1:19.93  1:15.97  2:35.90  +10.67  79.90
 54  104  60273 LAHAYE Eric  1999  BEL   1:20.71  1:15.76  2:36.47  +11.24  83.75
 55  94  221290 POTH Robert  1997  GBR   1:20.53  1:16.18  2:36.71  +11.48  85.37
 56  91  390041 LUIK Juhan  1997  EST   1:21.50  1:16.46  2:37.96  +12.73  93.80
 57  72  30388 BIRKNER DE MIGUEL Tomas  1997  ARG   1:21.82  1:16.25  2:38.07  +12.84  94.54
 58  95  40607 COULL Harrison  1997  AUS   1:22.14  1:17.08  2:39.22  +13.99  102.30
 59  101  60255 TINLAND Leonardo  1997  BEL   1:21.29  1:18.72  2:40.01  +14.78  107.63
 60  99  30416 GRAVIER Balthazar  1999  ARG   1:21.14  1:19.45  2:40.59  +15.36  111.55
 61  103  540026 DICKSON SOMMERS Rodolfo Roberto  1997  MEX   1:21.93  1:19.39  2:41.32  +16.09  116.47
 62  92  110419 PIROZZI Roberto  1999  CHI   1:23.06  1:18.27  2:41.33  +16.10  116.54
 63  107  250402 GUDMUNDSSON Jon Gunnar  1998  ISL   1:25.03  1:20.01  2:45.04  +19.81  141.58
 64  110  360046 OSCH Matthieu  1999  LUX   1:24.18  1:21.39  2:45.57  +20.34  145.15
 65  115  170160 STAUNSAGER Mark Holme  1998  DEN   1:26.16  1:21.40  2:47.56  +22.33  158.58
 66  122  670091 SATKEYEV Islam  1999  KAZ   1:28.48  1:22.94  2:51.42  +26.19  184.63
 67  118  670090 SYSSOYEV Danil  1999  KAZ   1:29.15  1:25.35  2:54.50  +29.27  205.41
 68  117  140013 FLAHERTY Charles  2000  PUR   1:29.89  1:27.62  2:57.51  +32.28  225.72
 69  123  360045 CASTERMANS Max  1998  LUX   1:31.20  1:26.68  2:57.88  +32.65  228.22
 70  125  340495 ARNOUK Cezar  2000  LBN   1:33.33  1:28.52  3:01.85  +36.62  255.01
 71  127  340458 CHRABIEH Edwin  1999  LBN   1:36.51  1:32.40  3:08.91  +43.68  302.65
 72  121  270080 REILLY Garreth  1999  IRL   1:28.35  1:42.37  3:10.72  +45.49  314.86
 73  124  130040 HO Ping-Jui  1998  TPE   1:38.70  1:36.33  3:15.03  +49.80  343.95
 74  130  340490 MOUNLA Tarek  2000  LBN   1:43.85  1:36.06  3:19.91  +54.68  376.88
 75  126  620069 CHAND Anil  1997  IND   1:46.00  1:40.74  3:26.74  +1:01.51  422.96
 76  128  620070 KANWAR Alwyn  1997  IND   1:50.94  1:41.16  3:32.10  +1:06.87  459.13
Did not finish 2nd run
   119  610003 MILLER Asa  2000  PHI           
   114  410408 LOEFFEN-GALLAGHER Ben  1997  NZL           
   112  780013 ZAVECKAS Rokas  1996  LTU           
   109  30431 BEGINO Juan Cruz  2000  ARG           
   105  30372 VITIELLO Juan Jose  1996  ARG           
   98  151237 KLINSKY Tomas  1998  CZE           
   83  502210 MONSEN Zack  1997  SWE           
   78  481875 RIABITCA Konstantin  1997  RUS           
   77  6300673 WAKATSUKI Hayata  1999  JPN           
   73  492192 ORTEGA Albert  1998  ESP           
   70  6532163 SEYMOUR Jett  1998  USA           
   68  110383 VON APPEN Sven  1997  CHI           
   58  180791 MUSTALAHTI Jaakko  1996  FIN           
   57  502278 VENNERSTROEM Filip  1998  SWE           
   56  6190403 NOEL Clement  1997  FRA           
   45  110409 HORWITZ Kai  1998  CHI           
   39  104468 READ Jeffrey  1997  CAN           
   22  6292181 PRAST Alexander  1996  ITA           
   6  6531963 STEFFEY George  1997  USA           
Did not start 2nd run
   131  690765 PETRUK Nazariy  2000  UKR           
   113  690753 KARPUSHYN Mykhailo  1998  UKR           
   62  202762 JOCHER Simon  1996  GER           
Did not finish 1st run
   129  690737 TSIBELENKO Levko  1996  UKR           
   116  170166 JENSEN Christian Skov  2000  DEN           
   111  250399 GUDMUNDSSON Bjorn Asgeir  1998  ISL           
   108  700967 KOSIK Tomas  2000  SVK           
   106  670080 KUCHIN Zakhar  1997  KAZ           
   102  430802 PYJAS Pawel  1999  POL           
   100  430783 HABDAS Piotr  1998  POL           
   97  110420 LEON Diego  1999  CHI           
   86  492065 ORTEGA Ricard  1996  ESP           
   84  561344 FLORJANCIC Ven  1996  SLO           
   74  104539 SEGER Riley  1997  CAN           
   71  180849 JARVIKARE Niklas  1999  FIN           
   66  502207 PLATTER Filip  1997  SWE           
   65  481897 ALEKHIN Nikita  1998  RUS           
   59  561364 SPILAR Zan  1997  SLO           
   54  180840 MAKELA Eetu  1998  FIN           
   51  561329 SENCAR Dusan  1996  SLO           
   50  422558 SANDERBERG Olav Engelhardt  1997  NOR           
   46  481730 KUZNETSOV Ivan  1996  RUS           
   42  512273 SPARR Maurus  1998  SUI           
   38  6300451 KATO Seigo  1998  JPN           
   33  512162 GAEMPERLE Marco  1996  SUI           
   28  104412 BRUNEAU-BOUCHARD William  1996  CAN           
   26  202758 ZELLER Yannik  1996  GER           
   25  512234 FISCHBACHER Marco  1997  SUI           
   23  6292556 ZUCCARINI Giulio  1997  ITA           
   19  54445 HAASER Raphael  1997  AUT           
   11  6190197 FALGOUX Remy  1996  FRA           
Did not start 1st run
   120  170162 PEDERSEN Jonas Barslund  1998  DEN           
   88  92719 ZLATKOV Kamen  1997  BUL           
   75  502298 HEDSTROEM Tobias  1998  SWE           
   67  151238 ZABYSTRAN Jan  1998  CZE           
   49  502230 SUNDIN Olle  1997  SWE